Time;durP1;ratioP1;P1;durP2;ratioP2;P2;SDS_P1;SDS_P2;PMS_P1;PMS_P2;Temp;Humidity;BMP_temperature;BMP_pressure;BME280_temperature;BME280_humidity;BME280_pressure;Samples;Min_cycle;Max_cycle;Signal;HPM_P1;HPM_P2
2022/04/19 00:01:12;;;;;;;4.00;2.70;;;16.50;56.40;;;;;;5031946;28;20056;-72
2022/04/19 00:03:38;;;;;;;4.18;2.97;;;16.60;56.20;;;;;;5030807;28;20682;-72
2022/04/19 00:06:05;;;;;;;4.30;2.80;;;16.80;56.40;;;;;;5032519;28;20412;-72
2022/04/19 00:08:32;;;;;;;4.20;2.60;;;15.90;55.80;;;;;;5030982;28;20057;-72
2022/04/19 00:10:59;;;;;;;3.38;2.60;;;16.70;56.50;;;;;;5037026;28;20052;-72
2022/04/19 00:13:28;;;;;;;3.90;2.90;;;16.60;56.60;;;;;;5050874;28;20061;-72
2022/04/19 00:15:55;;;;;;;4.05;2.70;;;17.20;56.90;;;;;;5050746;28;20084;-71
2022/04/19 00:18:22;;;;;;;4.13;2.70;;;16.70;56.80;;;;;;5050847;28;20049;-72
2022/04/19 00:20:49;;;;;;;4.28;2.67;;;16.70;56.30;;;;;;5050383;28;20071;-72
2022/04/19 00:23:16;;;;;;;3.53;2.60;;;16.70;56.70;;;;;;5051809;28;20084;-72
2022/04/19 00:25:43;;;;;;;6.10;2.92;;;16.50;56.60;;;;;;5051761;28;20107;-72
2022/04/19 00:28:09;;;;;;;3.72;2.78;;;16.20;56.10;;;;;;5048836;28;20049;-71
2022/04/19 00:30:38;;;;;;;4.32;2.90;;;16.70;56.50;;;;;;5050480;28;20419;-72
2022/04/19 00:33:04;;;;;;;4.10;2.78;;;16.50;56.30;;;;;;5050730;28;20069;-72
2022/04/19 00:35:31;;;;;;;3.67;2.88;;;16.10;56.40;;;;;;5050616;28;20401;-72
2022/04/19 00:37:59;;;;;;;4.18;3.00;;;16.50;56.60;;;;;;5050414;28;20098;-72
2022/04/19 00:40:26;;;;;;;4.22;2.67;;;16.60;56.40;;;;;;5049969;28;20056;-71
2022/04/19 00:42:53;;;;;;;4.10;2.97;;;;;;;;;;5049058;28;20140;-72
2022/04/19 00:45:20;;;;;;;4.05;2.97;;;16.40;56.20;;;;;;5030975;28;20049;-72
2022/04/19 00:47:48;;;;;;;4.00;3.05;;;16.40;56.60;;;;;;5031656;28;20052;-72
2022/04/19 00:50:15;;;;;;;4.82;2.92;;;;;;;;;;5030445;28;20057;-72
2022/04/19 00:52:43;;;;;;;4.13;2.92;;;15.80;56.00;;;;;;5030377;28;20057;-71
2022/04/19 00:55:10;;;;;;;5.20;3.00;;;16.60;56.70;;;;;;5030603;28;20065;-72
2022/04/19 00:57:37;;;;;;;4.82;3.08;;;16.50;56.60;;;;;;5030549;28;20057;-72
2022/04/19 01:00:08;;;;;;;5.43;2.95;;;17.20;56.70;;;;;;5040941;28;20060;-72
2022/04/19 01:02:35;;;;;;;4.53;3.63;;;15.80;56.30;;;;;;5054285;28;20049;-72
2022/04/19 01:05:03;;;;;;;3.38;3.00;;;16.00;56.40;;;;;;5055423;28;20045;-72
2022/04/19 01:07:30;;;;;;;5.05;3.45;;;16.50;56.60;;;;;;5054357;28;20056;-72
2022/04/19 01:09:57;;;;;;;5.13;3.35;;;15.90;56.30;;;;;;5054972;28;20041;-72
2022/04/19 01:15:09;;;;;;;4.40;3.10;;;16.10;56.50;;;;;;5054267;28;20049;-72
2022/04/19 01:17:38;;;;;;;5.72;3.17;;;16.50;56.40;;;;;;5037279;28;20132;-72
2022/04/19 01:20:07;;;;;;;5.32;3.33;;;16.30;56.50;;;;;;5033799;28;20499;-72
2022/04/19 01:22:35;;;;;;;3.75;3.03;;;16.40;56.50;;;;;;5034015;28;20057;-72
2022/04/19 01:25:02;;;;;;;4.82;3.30;;;16.30;56.40;;;;;;5033574;28;20053;-72
2022/04/19 01:27:29;;;;;;;4.30;3.20;;;16.20;56.60;;;;;;5035201;28;20049;-71
2022/04/19 01:30:00;;;;;;;3.97;3.10;;;15.90;56.40;;;;;;5033786;28;20081;-72
2022/04/19 01:32:27;;;;;;;4.50;3.10;;;16.40;56.80;;;;;;5040687;28;20045;-72
2022/04/19 01:35:09;;;;;;;4.38;3.40;;;16.30;56.70;;;;;;5053708;28;20075;-72
2022/04/19 01:37:37;;;;;;;4.47;3.30;;;16.20;53.80;;;;;;5053431;28;20049;-72
2022/04/19 01:40:17;;;;;;;4.15;3.00;;;16.40;56.80;;;;;;5053513;28;20053;-72
2022/04/19 01:42:45;;;;;;;4.45;3.03;;;16.40;56.80;;;;;;5053430;28;20110;-72
2022/04/19 01:45:12;;;;;;;4.03;3.10;;;15.80;56.40;;;;;;5053578;28;20060;-72
2022/04/19 01:47:39;;;;;;;4.47;3.22;;;15.70;56.10;;;;;;5053655;28;20057;-71
2022/04/19 01:50:08;;;;;;;4.82;3.40;;;15.60;56.40;;;;;;5051542;28;20518;-72
2022/04/19 01:52:37;;;;;;;4.57;2.90;;;15.70;56.20;;;;;;5053262;28;20128;-72
2022/04/19 01:55:05;;;;;;;5.32;3.25;;;16.20;50.60;;;;;;5054610;28;20057;-71
2022/04/19 01:57:32;;;;;;;5.50;3.17;;;16.10;56.50;;;;;;5053258;28;20060;-71
2022/04/19 01:59:59;;;;;;;5.22;3.25;;;16.20;56.60;;;;;;5054046;28;20060;-72
2022/04/19 02:02:25;;;;;;;5.13;3.30;;;16.20;56.70;;;;;;5053212;28;20056;-72
2022/04/19 02:04:52;;;;;;;4.47;3.10;;;16.40;56.60;;;;;;5051522;28;20059;-72
2022/04/19 02:07:19;;;;;;;3.97;2.90;;;16.00;56.50;;;;;;5053293;28;20409;-72
2022/04/19 02:09:47;;;;;;;4.47;3.40;;;15.80;56.40;;;;;;5051976;28;20055;-72
2022/04/19 02:12:14;;;;;;;4.95;3.40;;;;;;;;;;5053130;28;20049;-71
2022/04/19 02:14:42;;;;;;;4.38;3.35;;;15.80;56.20;;;;;;5052580;28;20059;-72
2022/04/19 02:17:09;;;;;;;4.40;3.25;;;16.20;56.20;;;;;;5053112;28;20489;-72
2022/04/19 02:19:37;;;;;;;4.00;3.10;;;;;;;;;;5052719;28;20067;-71
2022/04/19 02:22:06;;;;;;;3.90;2.78;;;16.20;56.50;;;;;;5052349;28;20045;-72
2022/04/19 02:24:33;;;;;;;4.93;2.90;;;15.90;54.40;;;;;;5052695;28;20413;-72
2022/04/19 02:27:01;;;;;;;4.28;3.42;;;16.20;56.40;;;;;;5053821;28;20059;-72
2022/04/19 02:29:28;;;;;;;3.38;2.70;;;16.00;56.60;;;;;;5052679;28;20056;-72
2022/04/19 02:31:55;;;;;;;3.80;2.95;;;16.20;52.10;;;;;;5052723;28;20409;-72
2022/04/19 02:34:21;;;;;;;5.22;3.40;;;16.10;56.50;;;;;;5052288;28;20063;-72
2022/04/19 02:36:48;;;;;;;5.07;3.20;;;16.20;56.50;;;;;;5052738;28;20063;-72
2022/04/19 02:39:15;;;;;;;5.28;3.20;;;16.20;56.70;;;;;;5050766;28;20127;-72
2022/04/19 02:41:41;;;;;;;3.83;3.22;;;16.30;56.60;;;;;;5053408;28;20049;-72
2022/04/19 02:44:09;;;;;;;5.22;3.28;;;16.30;56.60;;;;;;5053241;28;20516;-72
2022/04/19 02:46:37;;;;;;;5.20;3.40;;;17.10;57.00;;;;;;5052592;28;20057;-72
2022/04/19 02:49:04;;;;;;;4.85;3.55;;;16.40;52.40;;;;;;5052135;28;20057;-72
2022/04/19 02:51:31;;;;;;;3.85;2.90;;;;;;;;;;5052271;28;20064;-71
2022/04/19 02:53:58;;;;;;;4.50;3.00;;;16.30;56.70;;;;;;5051246;28;20056;-72
2022/04/19 02:56:25;;;;;;;4.30;3.10;;;15.60;56.00;;;;;;5051831;28;20052;-72
2022/04/19 02:58:52;;;;;;;4.63;3.30;;;16.30;56.10;;;;;;5052291;28;20506;-72
2022/04/19 03:01:20;;;;;;;4.60;3.05;;;16.30;56.70;;;;;;5051873;28;20135;-72
2022/04/19 03:03:47;;;;;;;4.30;2.95;;;16.40;54.80;;;;;;5051929;28;20132;-72
2022/04/19 03:06:14;;;;;;;4.97;2.85;;;15.70;56.20;;;;;;5051873;28;20071;-71
2022/04/19 03:08:40;;;;;;;4.00;2.90;;;16.30;56.30;;;;;;5053152;28;20087;-72
2022/04/19 03:11:07;;;;;;;6.80;3.20;;;16.40;56.30;;;;;;5050096;28;20505;-72
2022/04/19 03:13:35;;;;;;;3.40;2.70;;;16.30;56.60;;;;;;5053039;28;20076;-72
2022/04/19 03:16:02;;;;;;;4.00;2.90;;;15.80;56.10;;;;;;5051876;28;20132;-72
2022/04/19 03:18:31;;;;;;;5.28;3.17;;;16.30;56.50;;;;;;5051514;28;20064;-72
2022/04/19 03:20:58;;;;;;;3.75;2.75;;;15.90;55.90;;;;;;5051473;28;20650;-72
2022/04/19 03:28:54;;;;;;;4.07;2.92;;;16.30;56.50;;;;;;5049761;28;20044;-72
2022/04/19 03:31:22;;;;;;;4.40;3.08;;;15.70;55.90;;;;;;5051251;28;20056;-71
2022/04/19 03:33:52;;;;;;;4.22;2.95;;;16.50;56.40;;;;;;5051442;28;20545;-72
2022/04/19 03:36:19;;;;;;;5.07;3.10;;;17.10;53.50;;;;;;5052642;28;20379;-72
2022/04/19 03:38:46;;;;;;;4.53;3.00;;;15.70;56.00;;;;;;5051538;28;20056;-72
2022/04/19 03:41:13;;;;;;;4.75;3.10;;;;;;;;;;5050913;28;20052;-72
2022/04/19 03:43:41;;;;;;;4.40;2.90;;;16.30;56.40;;;;;;5051133;28;20049;-72
2022/04/19 03:46:08;;;;;;;5.00;3.05;;;16.20;56.30;;;;;;5051090;28;20444;-72
2022/04/19 03:48:35;;;;;;;4.38;3.03;;;16.50;56.40;;;;;;5051358;28;20056;-71
2022/04/19 03:51:03;;;;;;;4.60;3.20;;;16.30;56.10;;;;;;5050650;28;20053;-72
2022/04/19 03:53:30;;;;;;;3.63;2.70;;;17.00;56.80;;;;;;5050873;28;20053;-72
2022/04/19 03:55:56;;;;;;;4.25;2.72;;;16.30;56.30;;;;;;5051331;28;20092;-72
2022/04/19 03:58:23;;;;;;;4.15;2.85;;;16.30;56.20;;;;;;5052287;28;20457;-71
2022/04/19 04:00:50;;;;;;;3.58;2.50;;;16.30;56.30;;;;;;5049054;28;20052;-72
2022/04/19 04:03:17;;;;;;;3.35;2.88;;;15.70;55.90;;;;;;5051991;28;20059;-72
2022/04/19 04:05:44;;;;;;;3.30;2.70;;;15.60;56.00;;;;;;5052103;28;20063;-72
2022/04/19 04:08:12;;;;;;;4.45;2.85;;;16.60;56.30;;;;;;5052195;28;20059;-72
2022/04/19 04:10:38;;;;;;;4.68;3.00;;;16.40;56.70;;;;;;5051867;28;20053;-71
2022/04/19 04:13:05;;;;;;;3.53;2.83;;;;;;;;;;5050688;28;20079;-71
2022/04/19 04:15:32;;;;;;;4.28;2.80;;;16.40;56.50;;;;;;5050938;28;20363;-72
2022/04/19 04:17:59;;;;;;;3.60;2.88;;;16.00;56.00;;;;;;5049277;28;20049;-72
2022/04/19 04:20:26;;;;;;;3.97;2.60;;;16.50;56.70;;;;;;5033930;28;20127;-72
2022/04/19 04:22:52;;;;;;;4.25;3.00;;;16.20;56.20;;;;;;5051658;28;20051;-72
2022/04/19 04:25:21;;;;;;;4.15;3.15;;;16.40;56.30;;;;;;5051757;28;20055;-72
2022/04/19 04:27:47;;;;;;;3.80;2.90;;;16.30;56.50;;;;;;5051719;28;20053;-72
2022/04/19 04:30:14;;;;;;;5.18;3.10;;;15.60;55.80;;;;;;5040345;28;20063;-72
2022/04/19 04:32:41;;;;;;;4.60;2.70;;;16.60;56.40;;;;;;5030828;28;20085;-72
2022/04/19 04:35:09;;;;;;;4.32;2.75;;;16.30;50.30;;;;;;5030399;28;20057;-71
2022/04/19 04:37:36;;;;;;;3.92;2.88;;;16.20;56.50;;;;;;5030481;28;20061;-71
2022/04/19 04:40:03;;;;;;;4.38;2.80;;;16.40;55.00;;;;;;5030501;28;20049;-72
2022/04/19 04:42:31;;;;;;;4.45;2.88;;;16.80;57.00;;;;;;5030568;28;20080;-72
2022/04/19 04:44:58;;;;;;;4.00;2.58;;;;;;;;;;5045412;28;20053;-71
2022/04/19 04:50:10;;;;;;;3.85;2.83;;;15.80;56.20;;;;;;5050271;28;20049;-72
2022/04/19 04:52:36;;;;;;;3.47;2.53;;;16.20;56.00;;;;;;5050346;28;20052;-72
2022/04/19 04:55:05;;;;;;;3.50;2.90;;;15.50;55.60;;;;;;5051401;28;20049;-72
2022/04/19 04:57:33;;;;;;;3.83;2.70;;;16.30;56.40;;;;;;5050670;28;20060;-72
2022/04/19 05:00:00;;;;;;;3.97;2.80;;;;;;;;;;5048391;28;20490;-72
2022/04/19 05:02:27;;;;;;;3.75;2.70;;;16.70;56.30;;;;;;5044348;28;20050;-72
2022/04/19 05:04:53;;;;;;;3.80;2.67;;;16.40;56.40;;;;;;5030480;28;20140;-72
2022/04/19 05:07:20;;;;;;;3.40;2.65;;;16.40;56.20;;;;;;5030385;28;20663;-72
2022/04/19 05:09:47;;;;;;;3.05;2.55;;;;;;;;;;5031527;28;20053;-72
2022/04/19 05:12:14;;;;;;;4.15;2.58;;;15.80;55.70;;;;;;5030097;28;20045;-71
2022/04/19 05:14:42;;;;;;;4.03;2.90;;;16.50;50.20;;;;;;5030313;28;20053;-72
2022/04/19 05:17:10;;;;;;;4.35;2.70;;;;;;;;;;5031439;28;20413;-71
2022/04/19 05:19:36;;;;;;;4.60;2.58;;;16.30;55.80;;;;;;5030218;28;20096;-72
2022/04/19 05:22:04;;;;;;;4.57;2.90;;;16.20;50.70;;;;;;5029845;28;20050;-72
2022/04/19 05:24:30;;;;;;;4.07;2.85;;;16.40;55.80;;;;;;5030283;28;20057;-72
2022/04/19 05:26:58;;;;;;;3.85;2.78;;;16.50;55.90;;;;;;5031529;28;20395;-72
2022/04/19 05:29:25;;;;;;;3.97;2.90;;;;;;;;;;5030023;28;20053;-72
2022/04/19 05:31:53;;;;;;;3.35;2.85;;;16.30;56.10;;;;;;5029939;28;20046;-72
2022/04/19 05:34:19;;;;;;;4.38;3.10;;;16.20;55.70;;;;;;5049543;28;20049;-72
2022/04/19 05:36:46;;;;;;;4.10;2.78;;;16.30;55.80;;;;;;5049952;28;20064;-72
2022/04/19 05:39:13;;;;;;;3.63;2.65;;;15.80;55.70;;;;;;5049985;28;20067;-72
2022/04/19 05:41:40;;;;;;;3.58;2.72;;;15.60;55.50;;;;;;5049549;28;20073;-72
2022/04/19 05:44:07;;;;;;;3.88;2.65;;;16.30;56.10;;;;;;5049880;28;20053;-72
2022/04/19 05:46:35;;;;;;;4.55;2.90;;;15.90;55.70;;;;;;5045845;28;20052;-72
2022/04/19 05:49:04;;;;;;;4.43;2.70;;;16.40;53.00;;;;;;5034628;28;20056;-72
2022/04/19 05:51:31;;;;;;;4.05;2.80;;;17.30;56.30;;;;;;5045925;28;20406;-72
2022/04/19 05:53:57;;;;;;;4.07;2.90;;;16.50;55.80;;;;;;5045696;28;20057;-71
2022/04/19 05:56:24;;;;;;;5.40;3.00;;;16.60;55.70;;;;;;5034555;28;20047;-72
2022/04/19 05:58:51;;;;;;;3.72;2.65;;;16.60;55.90;;;;;;5034487;28;20409;-72
2022/04/19 06:01:18;;;;;;;4.18;2.75;;;16.40;56.00;;;;;;5032881;28;20124;-72
2022/04/19 06:06:30;;;;;;;4.97;3.10;;;17.00;56.10;;;;;;5034602;28;20081;-72
2022/04/19 06:08:57;;;;;;;3.97;2.53;;;16.40;56.00;;;;;;5033347;28;20053;-72
2022/04/19 06:11:24;;;;;;;3.35;2.65;;;16.60;56.10;;;;;;5032873;28;20049;-72
2022/04/19 06:13:50;;;;;;;3.38;2.67;;;16.50;56.10;;;;;;5034243;28;20141;-72
2022/04/19 06:16:17;;;;;;;3.45;2.45;;;16.50;56.40;;;;;;5039565;28;20063;-70
2022/04/19 06:18:44;;;;;;;4.53;2.70;;;15.80;55.80;;;;;;5040753;28;20060;-71
2022/04/19 06:21:11;;;;;;;3.67;2.72;;;16.50;55.80;;;;;;5050952;28;20056;-71
2022/04/19 06:23:39;;;;;;;3.83;2.60;;;16.60;55.90;;;;;;5054121;28;20052;-71
2022/04/19 06:26:06;;;;;;;3.60;2.70;;;16.50;56.20;;;;;;5054222;28;20474;-71
2022/04/19 06:28:32;;;;;;;3.25;2.60;;;15.70;55.50;;;;;;5052423;28;20055;-71
2022/04/19 06:30:59;;;;;;;6.35;2.70;;;16.70;56.20;;;;;;5053964;28;20045;-71
2022/04/19 06:33:26;;;;;;;4.20;2.63;;;16.20;55.70;;;;;;5052638;28;20067;-71
2022/04/19 06:35:53;;;;;;;3.15;2.42;;;;;;;;;;5049802;28;20075;-70
2022/04/19 06:38:21;;;;;;;5.07;2.83;;;16.80;55.70;;;;;;5039890;28;20055;-71
2022/04/19 06:40:49;;;;;;;3.65;2.65;;;15.90;55.30;;;;;;5041186;28;20056;-71
2022/04/19 06:43:16;;;;;;;4.10;2.63;;;17.10;55.50;;;;;;5043208;28;20045;-72
2022/04/19 06:45:43;;;;;;;3.80;2.65;;;17.10;55.50;;;;;;5044323;28;20046;-72
2022/04/19 06:48:10;;;;;;;3.03;2.38;;;17.30;55.20;;;;;;5041346;28;20100;-72
2022/04/19 06:50:36;;;;;;;4.35;2.53;;;17.30;55.10;;;;;;5042052;28;20055;-72
2022/04/19 06:53:03;;;;;;;3.35;2.60;;;17.60;55.20;;;;;;5042676;28;20490;-72
2022/04/19 06:55:31;;;;;;;3.70;2.50;;;17.00;54.80;;;;;;5057442;28;20132;-72
2022/04/19 06:57:59;;;;;;;3.53;2.78;;;17.90;51.80;;;;;;5043967;28;20072;-71
2022/04/19 07:00:25;;;;;;;4.55;2.58;;;17.40;54.10;;;;;;5043098;28;20045;-71
2022/04/19 07:02:52;;;;;;;3.45;2.50;;;18.00;54.30;;;;;;5042489;28;20037;-72
2022/04/19 07:05:19;;;;;;;3.30;2.42;;;18.00;54.60;;;;;;5045371;28;20489;-72
2022/04/19 07:07:46;;;;;;;3.03;2.30;;;18.30;54.30;;;;;;5051180;28;20413;-71
2022/04/19 07:10:12;;;;;;;3.53;2.33;;;18.30;53.80;;;;;;5052687;28;20051;-71
2022/04/19 07:12:39;;;;;;;3.88;2.53;;;18.50;54.60;;;;;;5053071;28;20482;-72
2022/04/19 07:15:09;;;;;;;2.97;2.22;;;18.70;51.40;;;;;;5053320;28;20051;-74
2022/04/19 07:17:39;;;;;;;4.43;2.65;;;18.80;53.80;;;;;;5052128;28;20061;-72
2022/04/19 07:28:20;;;;;;;2.97;2.20;;;18.70;52.80;;;;;;5042436;28;20045;-70
2022/04/19 07:30:48;;;;;;;3.67;2.40;;;19.00;52.90;;;;;;5043621;28;20405;-72
2022/04/19 07:33:16;;;;;;;2.67;2.10;;;19.90;53.50;;;;;;5043010;28;20049;-72
2022/04/19 07:35:43;;;;;;;27.45;2.97;;;19.10;53.20;;;;;;5042793;28;20056;-72
2022/04/19 07:38:10;;;;;;;4.47;2.25;;;18.90;53.20;;;;;;5041380;28;20508;-72
2022/04/19 07:40:37;;;;;;;4.53;1.98;;;19.60;53.20;;;;;;5042099;28;20049;-72
2022/04/19 07:43:03;;;;;;;4.13;2.35;;;19.10;52.50;;;;;;5041207;28;20499;-72
2022/04/19 07:45:30;;;;;;;3.25;2.00;;;19.00;52.40;;;;;;5042253;28;20051;-72
2022/04/19 07:47:58;;;;;;;3.38;2.00;;;19.30;50.40;;;;;;5042042;28;20167;-72
2022/04/19 07:50:25;;;;;;;3.42;2.10;;;19.50;52.70;;;;;;5041544;28;20045;-71
2022/04/19 07:52:52;;;;;;;4.28;2.00;;;18.70;52.10;;;;;;5044105;28;20044;-71
2022/04/19 07:55:18;;;;;;;3.33;1.95;;;19.60;52.40;;;;;;5043226;28;20045;-71
2022/04/19 07:57:45;;;;;;;3.33;1.80;;;19.50;52.90;;;;;;5041486;28;20494;-71
2022/04/19 08:00:13;;;;;;;3.20;2.22;;;19.40;52.30;;;;;;5041264;28;20049;-71
2022/04/19 08:02:40;;;;;;;3.78;1.90;;;18.80;52.10;;;;;;5041650;28;20072;-71
2022/04/19 08:05:09;;;;;;;3.53;1.75;;;19.30;46.80;;;;;;5041569;28;20132;-70
2022/04/19 08:07:36;;;;;;;6.65;2.25;;;19.30;47.40;;;;;;5042297;28;20047;-69
2022/04/19 08:10:04;;;;;;;4.55;1.95;;;18.50;51.60;;;;;;5043214;28;20071;-69
2022/04/19 08:12:31;;;;;;;2.42;1.90;;;19.30;52.20;;;;;;5040725;28;20051;-72
2022/04/19 08:14:58;;;;;;;2.30;1.67;;;19.40;52.40;;;;;;5039536;28;20119;-70
2022/04/19 08:17:24;;;;;;;3.95;2.00;;;19.30;52.10;;;;;;5042829;28;20094;-69
2022/04/19 08:19:51;;;;;;;4.07;1.90;;;19.50;51.80;;;;;;5050166;28;20099;-69
2022/04/19 08:22:20;;;;;;;3.70;1.95;;;19.40;47.20;;;;;;5039598;28;20119;-69
2022/04/19 08:24:47;;;;;;;2.75;1.83;;;19.40;51.90;;;;;;5038001;28;20104;-69
2022/04/19 08:27:15;;;;;;;3.92;2.00;;;19.50;51.80;;;;;;5046038;28;20048;-70
2022/04/19 08:29:43;;;;;;;3.78;1.90;;;19.60;51.40;;;;;;5051696;28;20059;-69
2022/04/19 08:32:09;;;;;;;4.07;1.85;;;19.40;52.10;;;;;;5051824;28;20547;-69
2022/04/19 08:34:36;;;;;;;4.00;1.77;;;19.20;51.90;;;;;;5051766;28;20478;-68
2022/04/19 08:37:03;;;;;;;4.00;1.85;;;19.70;52.10;;;;;;5050975;28;20075;-68
2022/04/19 08:39:31;;;;;;;4.15;1.77;;;19.50;47.00;;;;;;5050805;28;20124;-70
2022/04/19 08:41:58;;;;;;;2.45;1.52;;;19.00;52.60;;;;;;5050539;28;20437;-70
2022/04/19 08:44:25;;;;;;;3.38;1.75;;;19.30;52.30;;;;;;5050790;28;20052;-68
2022/04/19 08:46:52;;;;;;;5.60;1.90;;;19.70;51.60;;;;;;5050745;28;20049;-70
2022/04/19 08:49:19;;;;;;;3.72;1.60;;;19.50;51.40;;;;;;5050780;28;20057;-69
2022/04/19 08:51:46;;;;;;;2.95;1.50;;;19.60;51.50;;;;;;5050615;28;20132;-68
2022/04/19 08:59:43;;;;;;;;;;;19.50;46.80;;;;;;5032476;28;20437;-69
2022/04/19 09:02:19;;;;;;;5.47;1.92;;;19.40;52.00;;;;;;5031752;28;19921;-68
2022/04/19 09:04:46;;;;;;;5.32;1.80;;;19.50;51.90;;;;;;5033317;28;20045;-68
2022/04/19 09:07:13;;;;;;;3.00;1.58;;;19.40;51.50;;;;;;5039586;28;20052;-71
2022/04/19 09:09:39;;;;;;;3.58;1.67;;;19.30;46.60;;;;;;5039338;28;20418;-68
2022/04/19 09:12:09;;;;;;;3.78;1.58;;;19.20;52.40;;;;;;5038820;28;20132;-68
2022/04/19 09:14:36;;;;;;;3.45;1.48;;;19.20;52.70;;;;;;5058403;28;20048;-68
2022/04/19 09:17:04;;;;;;;2.20;1.48;;;19.40;51.90;;;;;;5043886;28;20140;-71
2022/04/19 09:19:31;;;;;;;4.97;1.70;;;19.30;51.50;;;;;;5030077;28;20057;-69
2022/04/19 09:21:58;;;;;;;2.38;1.42;;;19.40;51.30;;;;;;5032240;28;20528;-68
2022/04/19 09:24:26;;;;;;;3.22;1.50;;;19.20;51.80;;;;;;5034226;28;20061;-68
2022/04/19 09:26:52;;;;;;;2.97;1.38;;;19.20;52.50;;;;;;5035216;28;20042;-67
2022/04/19 09:29:21;;;;;;;2.42;1.40;;;19.30;51.90;;;;;;5043482;28;20052;-71
2022/04/19 09:31:50;;;;;;;4.00;1.60;;;19.80;51.80;;;;;;5054675;28;20401;-69
2022/04/19 09:34:28;;;;;;;2.00;1.40;;;19.30;51.30;;;;;;5055030;28;20056;-68
2022/04/19 09:37:06;;;;;;;2.13;1.30;;;19.30;51.80;;;;;;5054708;28;20052;-68
2022/04/19 09:39:34;;;;;;;2.50;1.40;;;19.20;46.70;;;;;;5054637;28;20087;-68
2022/04/19 09:42:01;;;;;;;2.40;1.40;;;18.40;50.60;;;;;;5055004;28;20048;-69
2022/04/19 09:44:29;;;;;;;2.63;1.45;;;19.30;51.60;;;;;;5476809;22;20497;-69
2022/04/19 09:47:04;;;;;;;1.73;1.30;;;19.30;51.70;;;;;;5033192;28;20057;-69
2022/04/19 09:49:48;;;;;;;1.73;1.50;;;19.30;51.70;;;;;;5034082;28;20135;-70
2022/04/19 09:52:17;;;;;;;1.75;1.40;;;19.50;51.80;;;;;;5032217;28;20040;-69
2022/04/19 09:54:45;;;;;;;1.75;1.40;;;18.90;51.10;;;;;;5036528;28;20049;-69
2022/04/19 09:57:12;;;;;;;2.10;1.27;;;19.30;51.50;;;;;;5054905;28;20055;-69
2022/04/19 09:59:45;;;;;;;2.17;1.50;;;19.40;51.60;;;;;;5054462;28;20056;-69
2022/04/19 10:08:14;;;;;;;2.50;1.60;;;18.50;51.10;;;;;;4976711;28;20054;-69
2022/04/19 10:10:41;;;;;;;1.92;1.35;;;19.30;51.50;;;;;;5021331;28;20049;-68
2022/04/19 10:13:08;;;;;;;2.58;1.60;;;19.70;51.70;;;;;;5017081;28;20053;-68
2022/04/19 10:15:36;;;;;;;2.40;1.38;;;19.10;50.00;;;;;;5034283;28;20057;-69
2022/04/19 10:18:04;;;;;;;3.03;1.73;;;19.30;51.40;;;;;;5035304;28;20073;-69
2022/04/19 10:20:32;;;;;;;2.70;1.80;;;19.60;51.90;;;;;;5053489;28;20420;-68
2022/04/19 10:23:03;;;;;;;3.60;1.55;;;19.60;51.30;;;;;;5036577;28;20051;-69
2022/04/19 10:25:43;;;;;;;1.63;1.30;;;20.00;52.30;;;;;;5054126;28;20131;-68
2022/04/19 10:28:11;;;;;;;1.83;1.35;;;19.40;51.20;;;;;;5036527;28;20056;-68
2022/04/19 10:30:40;;;;;;;2.40;1.40;;;19.30;51.00;;;;;;5036259;28;20061;-68
2022/04/19 10:33:45;;;;;;;2.20;1.50;;;19.20;51.40;;;;;;5043821;28;20049;-68
2022/04/19 10:36:16;;;;;;;4.20;1.58;;;19.40;50.90;;;;;;5016573;28;20049;-70
2022/04/19 10:38:43;;;;;;;1.83;1.35;;;19.20;46.10;;;;;;5016512;28;20053;-70
2022/04/19 10:41:10;;;;;;;1.55;1.35;;;19.50;51.30;;;;;;5016002;28;20064;-69
2022/04/19 10:43:36;;;;;;;2.45;1.40;;;19.10;51.30;;;;;;5015924;28;20478;-69
2022/04/19 10:46:23;;;;;;;2.15;1.30;;;19.30;46.30;;;;;;5013353;28;20053;-70
2022/04/19 10:49:24;;;;;;;1.60;1.30;;;19.40;51.00;;;;;;5013978;28;20057;-69
2022/04/19 10:51:52;;;;;;;1.70;1.35;;;20.00;51.50;;;;;;5014249;28;20520;-68
2022/04/19 10:54:52;;;;;;;1.92;1.33;;;20.30;53.20;;;;;;5015868;28;20559;-68
2022/04/19 11:00:00;;;;;;;1.42;1.30;;;19.50;51.60;;;;;;5014818;28;20045;-69
2022/04/19 11:02:36;;;;;;;1.70;1.27;;;19.20;51.60;;;;;;5016709;28;20053;-69
2022/04/19 11:05:03;;;;;;;1.80;1.38;;;19.00;50.80;;;;;;5013262;28;20449;-69
2022/04/19 11:07:43;;;;;;;1.88;1.30;;;19.50;51.60;;;;;;5015519;28;20081;-68
2022/04/19 11:10:10;;;;;;;3.17;1.20;;;18.70;51.00;;;;;;5032196;28;20055;-69
2022/04/19 11:12:58;;;;;;;3.92;1.20;;;19.50;52.70;;;;;;5033209;28;20714;-69
2022/04/19 11:15:37;;;;;;;1.65;1.02;;;19.10;51.30;;;;;;5014541;28;20049;-68
2022/04/19 11:18:22;;;;;;;1.85;1.30;;;19.50;51.70;;;;;;5033348;28;20085;-68
2022/04/19 11:20:49;;;;;;;2.45;1.40;;;19.60;51.50;;;;;;5015133;28;20061;-69
2022/04/19 11:23:20;;;;;;;1.40;1.20;;;19.40;51.30;;;;;;5032176;28;20449;-70
2022/04/19 11:25:47;;;;;;;1.88;1.48;;;19.10;51.50;;;;;;5032895;28;20132;-68
2022/04/19 11:28:25;;;;;;;2.60;1.50;;;19.40;45.80;;;;;;5016505;28;20061;-70
2022/04/19 11:31:11;;;;;;;2.17;1.63;;;20.10;51.80;;;;;;5052598;28;20132;-69
2022/04/19 11:33:39;;;;;;;2.42;1.40;;;19.50;51.00;;;;;;5035230;28;20140;-69
2022/04/19 11:36:06;;;;;;;3.63;1.40;;;19.50;50.90;;;;;;5035004;28;20146;-68
2022/04/19 11:38:33;;;;;;;2.10;1.35;;;19.10;51.00;;;;;;5035215;28;20053;-69
2022/04/19 11:46:48;;;;;;;2.17;1.20;;;19.30;51.00;;;;;;5014596;28;20417;-68
2022/04/19 11:49:29;;;;;;;2.83;1.10;;;19.10;51.10;;;;;;5015339;28;20056;-69
2022/04/19 11:51:57;;;;;;;1.73;1.13;;;19.20;51.10;;;;;;5032587;28;20116;-69
2022/04/19 11:54:24;;;;;;;1.98;1.15;;;19.40;51.00;;;;;;5014759;28;20057;-68
2022/04/19 11:56:52;;;;;;;1.63;1.30;;;19.60;51.30;;;;;;5038306;28;20123;-69
2022/04/19 11:59:19;;;;;;;3.50;1.23;;;19.80;51.40;;;;;;5034471;28;20053;-68
2022/04/19 12:01:49;;;;;;;1.60;1.20;;;19.40;46.20;;;;;;5034574;28;20063;-69
2022/04/19 12:04:15;;;;;;;3.10;1.23;;;19.40;51.20;;;;;;5051856;28;20052;-70
2022/04/19 12:06:48;;;;;;;1.17;1.00;;;19.50;51.10;;;;;;5034748;28;20503;-69
2022/04/19 12:09:15;;;;;;;2.72;1.60;;;18.60;50.70;;;;;;5052068;28;20052;-68
2022/04/19 12:11:42;;;;;;;2.33;1.30;;;19.50;51.00;;;;;;5051577;28;20048;-69
2022/04/19 12:14:09;;;;;;;2.67;1.25;;;19.40;51.20;;;;;;5034285;28;20053;-68
2022/04/19 12:16:36;;;;;;;3.35;1.25;;;19.50;51.20;;;;;;5034033;28;20075;-70
2022/04/19 12:19:04;;;;;;;1.45;1.20;;;19.20;51.50;;;;;;5051863;28;20060;-69
2022/04/19 12:21:35;;;;;;;2.97;1.50;;;19.40;51.70;;;;;;5051842;28;20130;-68
2022/04/19 12:24:04;;;;;;;2.10;1.20;;;19.40;51.40;;;;;;5033951;28;20055;-69
2022/04/19 12:26:31;;;;;;;11.95;1.30;;;19.20;51.50;;;;;;5024482;28;20053;-69
2022/04/19 12:29:07;;;;;;;4.90;1.60;;;19.20;51.70;;;;;;5014228;28;20049;-68
2022/04/19 12:31:35;;;;;;;2.90;1.77;;;20.00;52.10;;;;;;4994649;28;20054;-70
2022/04/19 12:34:02;;;;;;;3.50;1.42;;;19.20;51.50;;;;;;4994926;28;20477;-71
2022/04/19 12:36:29;;;;;;;1.27;1.00;;;19.50;51.60;;;;;;4997717;28;20420;-70
2022/04/19 12:39:01;;;;;;;3.60;1.20;;;19.40;52.20;;;;;;5046605;28;20551;-71
2022/04/19 12:41:39;;;;;;;1.65;1.20;;;19.40;52.20;;;;;;5033828;28;20053;-68
2022/04/19 12:44:07;;;;;;;1.40;1.10;;;19.80;52.50;;;;;;5033836;28;20056;-68
2022/04/19 12:46:39;;;;;;;1.98;1.00;;;19.50;47.10;;;;;;5033727;28;20139;-72
2022/04/19 12:49:06;;;;;;;2.17;1.17;;;19.50;52.20;;;;;;5033897;28;20091;-71
2022/04/19 12:51:35;;;;;;;1.88;1.30;;;18.70;50.10;;;;;;5033762;28;20059;-69
2022/04/19 12:54:06;;;;;;;4.25;1.42;;;19.50;51.80;;;;;;5018491;28;20060;-68
2022/04/19 12:56:32;;;;;;;1.63;1.10;;;19.40;51.60;;;;;;5033200;28;20057;-69
2022/04/19 12:59:01;;;;;;;2.10;1.10;;;19.60;52.10;;;;;;5029567;28;20054;-69
2022/04/19 13:01:27;;;;;;;1.85;1.13;;;19.40;51.90;;;;;;5017636;28;20132;-69
2022/04/19 13:03:54;;;;;;;2.17;1.65;;;19.30;51.50;;;;;;5016209;28;20408;-69
2022/04/19 13:14:34;;;;;;;1.20;1.10;;;19.50;47.10;;;;;;5037477;28;20044;-72
2022/04/19 13:17:01;;;;;;;1.48;1.10;;;20.20;52.40;;;;;;5037587;28;20056;-70
2022/04/19 13:19:28;;;;;;;2.90;1.20;;;20.30;52.30;;;;;;5037343;28;20495;-70
2022/04/19 13:21:55;;;;;;;1.63;1.17;;;19.60;53.60;;;;;;5023485;28;20076;-70
2022/04/19 13:24:22;;;;;;;3.47;1.40;;;19.60;47.10;;;;;;5035181;28;20052;-69
2022/04/19 13:26:48;;;;;;;4.40;1.48;;;19.40;52.60;;;;;;5034991;28;20125;-68
2022/04/19 13:29:15;;;;;;;2.55;1.30;;;20.00;51.80;;;;;;5017890;28;20432;-71
2022/04/19 13:31:43;;;;;;;6.32;1.60;;;19.50;46.90;;;;;;5017351;28;20061;-68
2022/04/19 13:34:10;;;;;;;3.20;1.48;;;19.50;51.60;;;;;;5035168;28;20516;-69
2022/04/19 13:36:37;;;;;;;3.53;1.20;;;19.40;51.90;;;;;;5036497;28;20063;-68
2022/04/19 13:39:05;;;;;;;3.30;1.30;;;19.70;51.90;;;;;;5055364;28;20057;-69
2022/04/19 13:41:31;;;;;;;4.05;1.40;;;19.20;51.50;;;;;;5054506;28;20060;-71
2022/04/19 13:43:58;;;;;;;4.13;1.23;;;19.20;51.60;;;;;;5037354;28;20055;-69
2022/04/19 13:46:25;;;;;;;5.70;1.40;;;19.50;51.90;;;;;;5025788;28;20049;-68